createdAt,value
2024-05-09T00:01:17.052Z,2.80
2024-05-09T00:03:47.366Z,2.77
2024-05-09T00:06:20.317Z,2.83
2024-05-09T00:08:50.762Z,2.43
2024-05-09T00:11:21.254Z,2.23
2024-05-09T00:13:51.628Z,2.40
2024-05-09T00:16:21.921Z,2.20
2024-05-09T00:18:52.290Z,2.60
2024-05-09T00:21:25.345Z,2.20
2024-05-09T00:23:55.680Z,2.20
2024-05-09T00:26:27.103Z,2.53
2024-05-09T00:28:57.514Z,2.07
2024-05-09T00:31:28.112Z,2.50
2024-05-09T00:33:58.623Z,2.37
2024-05-09T00:36:31.680Z,2.10
2024-05-09T00:39:01.901Z,2.10
2024-05-09T00:41:32.190Z,2.37
2024-05-09T00:44:03.098Z,2.40
2024-05-09T00:46:33.434Z,1.73
2024-05-09T00:49:05.521Z,2.47
2024-05-09T00:51:38.729Z,2.57
2024-05-09T00:54:09.776Z,2.43
2024-05-09T00:56:40.168Z,2.37
2024-05-09T00:59:10.914Z,2.30
2024-05-09T01:01:41.343Z,2.33
2024-05-09T01:04:12.097Z,2.27
2024-05-09T01:06:45.103Z,1.93
2024-05-09T01:09:15.354Z,2.40
2024-05-09T01:11:45.690Z,1.93
2024-05-09T01:14:16.040Z,2.40
2024-05-09T01:16:46.478Z,1.73
2024-05-09T01:19:23.634Z,2.23
2024-05-09T01:21:56.808Z,2.60
2024-05-09T01:24:29.851Z,2.33
2024-05-09T01:27:00.049Z,2.53
2024-05-09T01:29:30.393Z,2.70
2024-05-09T01:32:01.345Z,3.03
2024-05-09T01:34:31.613Z,3.00
2024-05-09T01:37:01.850Z,2.27
2024-05-09T01:39:34.851Z,2.23
2024-05-09T01:42:05.141Z,1.80
2024-05-09T01:44:35.512Z,2.37
2024-05-09T01:47:05.910Z,2.27
2024-05-09T01:49:39.133Z,2.70
2024-05-09T01:52:09.528Z,1.90
2024-05-09T01:54:42.510Z,2.00
2024-05-09T01:57:12.760Z,2.93
2024-05-09T01:59:42.971Z,2.40
2024-05-09T02:02:13.314Z,2.33
2024-05-09T02:04:43.717Z,2.33
2024-05-09T02:07:14.019Z,2.90
2024-05-09T02:09:46.889Z,2.23
2024-05-09T02:12:17.314Z,3.03
2024-05-09T02:14:47.546Z,3.10
2024-05-09T02:17:17.828Z,2.90
2024-05-09T02:19:48.099Z,3.10
2024-05-09T02:22:18.419Z,2.33
2024-05-09T02:24:51.283Z,2.20
2024-05-09T02:27:21.497Z,2.43
2024-05-09T02:29:51.719Z,2.37
2024-05-09T02:32:22.018Z,2.70
2024-05-09T02:34:52.428Z,2.90
2024-05-09T02:37:19.984Z,2.30
2024-05-09T02:39:52.991Z,2.20
2024-05-09T02:42:20.512Z,2.10
2024-05-09T02:44:50.811Z,2.30
2024-05-09T02:47:18.601Z,2.70
2024-05-09T02:49:48.981Z,2.10
2024-05-09T02:52:18.967Z,2.70
2024-05-09T02:54:49.106Z,3.27
2024-05-09T02:57:19.387Z,3.90
2024-05-09T02:59:49.623Z,3.60
2024-05-09T03:02:17.219Z,3.50
2024-05-09T03:04:48.350Z,3.50
2024-05-09T03:07:17.233Z,4.33
2024-05-09T03:09:49.910Z,3.47
2024-05-09T03:12:20.264Z,4.17
2024-05-09T03:14:53.363Z,3.80
2024-05-09T03:17:21.079Z,3.27
2024-05-09T03:19:51.508Z,4.20
2024-05-09T03:22:19.066Z,3.23
2024-05-09T03:24:49.340Z,4.13
2024-05-09T03:27:16.894Z,3.87
2024-05-09T03:29:49.835Z,4.47
2024-05-09T03:32:17.411Z,3.77
2024-05-09T03:34:47.763Z,5.10
2024-05-09T03:37:17.998Z,5.17
2024-05-09T03:39:48.218Z,4.77
2024-05-09T03:42:18.416Z,5.37
2024-05-09T03:44:52.774Z,4.70
2024-05-09T03:47:20.472Z,4.17
2024-05-09T03:49:50.696Z,4.53
2024-05-09T03:52:18.452Z,4.37
2024-05-09T03:54:49.541Z,3.73
2024-05-09T03:57:17.089Z,4.30
2024-05-09T03:59:47.321Z,4.97
2024-05-09T04:02:17.591Z,3.60
2024-05-09T04:04:47.993Z,4.20
2024-05-09T04:07:15.500Z,3.90
2024-05-09T04:09:45.754Z,3.50
2024-05-09T04:12:13.360Z,3.93
2024-05-09T04:14:43.626Z,3.20
2024-05-09T04:17:11.167Z,3.47
2024-05-09T04:19:44.161Z,3.40
2024-05-09T04:22:11.841Z,3.00
2024-05-09T04:24:42.062Z,3.03
2024-05-09T04:27:09.683Z,2.60
2024-05-09T04:29:40.292Z,2.33
2024-05-09T04:32:08.800Z,3.27
2024-05-09T04:34:39.740Z,3.20
2024-05-09T04:37:10.888Z,2.40
2024-05-09T04:39:41.155Z,2.27
2024-05-09T04:42:08.676Z,2.43
2024-05-09T04:44:38.942Z,2.43
2024-05-09T04:47:06.511Z,2.33
2024-05-09T04:49:36.799Z,2.93
2024-05-09T04:52:04.629Z,2.47
2024-05-09T04:54:37.528Z,3.00
2024-05-09T04:57:05.323Z,3.13
2024-05-09T04:59:36.614Z,3.07
2024-05-09T05:02:04.596Z,3.13
2024-05-09T05:04:34.971Z,3.17
2024-05-09T05:07:03.026Z,3.43
2024-05-09T05:09:33.579Z,3.30
2024-05-09T05:12:24.015Z,3.27
2024-05-09T05:14:54.597Z,3.30
2024-05-09T05:17:24.974Z,3.70
2024-05-09T05:19:52.846Z,3.40
2024-05-09T05:22:23.274Z,3.60
2024-05-09T05:24:50.898Z,3.47
2024-05-09T05:27:23.922Z,3.40
2024-05-09T05:29:51.533Z,4.27
2024-05-09T05:32:21.950Z,3.17
2024-05-09T05:34:49.699Z,3.90
2024-05-09T05:37:19.978Z,3.40
2024-05-09T05:39:47.555Z,2.90
2024-05-09T05:42:17.943Z,3.50
2024-05-09T05:44:48.144Z,4.07
2024-05-09T05:47:18.418Z,4.27
2024-05-09T05:49:46.196Z,3.70
2024-05-09T05:52:16.382Z,4.40
2024-05-09T05:54:43.958Z,3.90
2024-05-09T05:57:15.463Z,3.70
2024-05-09T05:59:43.150Z,3.90
2024-05-09T06:02:16.621Z,3.47
2024-05-09T06:04:44.354Z,3.30
2024-05-09T06:07:14.769Z,3.70
2024-05-09T06:09:42.275Z,3.33
2024-05-09T06:12:12.555Z,3.20
2024-05-09T06:14:40.633Z,2.80
2024-05-09T06:17:10.952Z,2.47
2024-05-09T06:19:41.380Z,1.90
2024-05-09T06:22:12.622Z,1.70
2024-05-09T06:24:40.175Z,1.13
2024-05-09T06:27:10.389Z,1.17
2024-05-09T06:29:38.844Z,1.50
2024-05-09T06:32:09.533Z,1.43
2024-05-09T06:34:37.213Z,1.23
2024-05-09T06:37:10.221Z,0.90
2024-05-09T06:39:37.758Z,1.35
2024-05-09T06:42:08.149Z,1.10
2024-05-09T06:44:35.717Z,1.03
2024-05-09T06:47:06.054Z,0.90
2024-05-09T06:49:33.862Z,0.88
2024-05-09T06:52:04.121Z,0.80
2024-05-09T06:54:34.346Z,0.88
2024-05-09T06:57:04.527Z,1.10
2024-05-09T06:59:32.157Z,1.17
2024-05-09T07:02:02.520Z,0.75
2024-05-09T07:04:30.167Z,1.00
2024-05-09T07:07:00.711Z,0.68
2024-05-09T07:09:28.279Z,0.80
2024-05-09T07:12:01.444Z,0.95
2024-05-09T07:14:29.348Z,0.80
2024-05-09T07:16:59.839Z,0.90
2024-05-09T07:19:27.745Z,0.70
2024-05-09T07:22:00.025Z,0.73
2024-05-09T07:24:27.639Z,0.75
2024-05-09T07:27:00.656Z,0.70
2024-05-09T07:29:28.670Z,0.73
2024-05-09T07:31:59.043Z,0.85
2024-05-09T07:34:26.763Z,0.82
2024-05-09T07:36:57.086Z,0.77
2024-05-09T07:39:24.852Z,0.80
2024-05-09T07:41:55.098Z,0.80
2024-05-09T07:44:25.322Z,0.82
2024-05-09T07:48:13.987Z,0.80
2024-05-09T07:51:32.214Z,0.93
2024-05-09T07:53:33.099Z,0.80
2024-05-09T07:55:21.382Z,0.82
2024-05-09T07:57:51.832Z,0.68
2024-05-09T08:00:29.648Z,0.90
2024-05-09T08:03:01.909Z,0.80
2024-05-09T08:05:29.966Z,0.60
2024-05-09T08:08:00.363Z,0.70
2024-05-09T08:10:29.203Z,0.80
2024-05-09T08:12:59.804Z,0.80
2024-05-09T08:15:30.290Z,0.88
2024-05-09T08:18:01.009Z,1.02
2024-05-09T08:20:33.489Z,1.00
2024-05-09T08:23:05.455Z,0.75
2024-05-09T08:25:33.459Z,0.65
2024-05-09T08:28:03.885Z,0.77
2024-05-09T08:30:37.325Z,0.80
2024-05-09T08:33:09.312Z,0.80
2024-05-09T08:35:37.196Z,0.85
2024-05-09T08:38:08.553Z,0.70
2024-05-09T08:40:37.967Z,0.88
2024-05-09T08:43:12.434Z,0.85
2024-05-09T08:45:47.348Z,0.93
2024-05-09T08:48:19.649Z,0.82
2024-05-09T08:50:50.798Z,0.70
2024-05-09T08:53:21.800Z,0.63
2024-05-09T08:55:51.557Z,0.68
2024-05-09T08:58:22.078Z,0.50
2024-05-09T09:00:53.143Z,0.95
2024-05-09T09:03:28.486Z,0.90
2024-05-09T09:05:59.359Z,0.70
2024-05-09T09:08:29.722Z,0.73
2024-05-09T09:10:59.154Z,0.95
2024-05-09T09:13:29.868Z,0.80
2024-05-09T09:16:01.523Z,0.70
2024-05-09T09:18:33.302Z,0.90
2024-05-09T09:21:01.056Z,0.70
2024-05-09T09:23:31.461Z,1.02
2024-05-09T09:25:59.916Z,0.70
2024-05-09T09:28:30.315Z,1.05
2024-05-09T09:31:05.180Z,0.77
2024-05-09T09:33:36.483Z,1.00
2024-05-09T09:36:06.959Z,0.70
2024-05-09T09:38:40.423Z,0.98
2024-05-09T09:41:08.979Z,0.88
2024-05-09T09:43:40.953Z,0.80
2024-05-09T09:46:13.172Z,0.70
2024-05-09T09:48:44.619Z,0.70
2024-05-09T09:51:12.377Z,0.98
2024-05-09T09:53:43.182Z,0.90
2024-05-09T09:56:11.491Z,0.90
2024-05-09T09:58:43.145Z,0.90
2024-05-09T10:01:13.501Z,0.90
2024-05-09T10:03:45.692Z,0.57
2024-05-09T10:06:14.449Z,1.00
2024-05-09T10:08:45.424Z,0.70
2024-05-09T10:11:12.975Z,0.98
2024-05-09T10:13:44.751Z,0.77
2024-05-09T10:16:21.479Z,0.70
2024-05-09T10:18:52.111Z,0.80
2024-05-09T10:21:20.590Z,0.80
2024-05-09T10:24:03.202Z,0.90
2024-05-09T10:26:32.251Z,1.00
2024-05-09T10:29:03.542Z,0.95
2024-05-09T10:31:33.975Z,0.90
2024-05-09T10:34:05.571Z,0.70
2024-05-09T10:36:33.266Z,0.80
2024-05-09T10:39:03.434Z,0.80
2024-05-09T10:41:30.908Z,0.55
2024-05-09T10:44:02.265Z,0.70
2024-05-09T10:46:30.216Z,0.82
2024-05-09T10:49:07.058Z,0.90
2024-05-09T10:51:35.611Z,0.90
2024-05-09T10:54:05.925Z,0.80
2024-05-09T10:56:33.470Z,0.70
2024-05-09T10:59:06.880Z,0.88
2024-05-09T11:01:34.609Z,0.82
2024-05-09T11:04:08.435Z,0.85
2024-05-09T11:06:38.491Z,0.80
2024-05-09T11:09:09.054Z,0.60
2024-05-09T11:11:36.762Z,0.70
2024-05-09T11:14:15.584Z,1.10
2024-05-09T11:16:43.292Z,0.85
2024-05-09T11:19:19.895Z,0.80
2024-05-09T11:21:51.888Z,0.80
2024-05-09T11:24:22.254Z,0.90
2024-05-09T11:26:49.932Z,0.88
2024-05-09T11:29:20.132Z,0.98
2024-05-09T11:31:47.855Z,0.80
2024-05-09T11:34:21.288Z,1.00
2024-05-09T11:36:48.915Z,1.10
2024-05-09T11:39:19.163Z,0.90
2024-05-09T11:41:46.691Z,0.93
2024-05-09T11:44:16.960Z,0.77
2024-05-09T11:46:44.501Z,1.02
2024-05-09T11:49:14.785Z,0.80
2024-05-09T11:51:45.075Z,0.80
2024-05-09T11:54:15.397Z,0.73
2024-05-09T11:56:42.935Z,1.00
2024-05-09T11:59:13.225Z,0.90
2024-05-09T12:01:41.783Z,0.80
2024-05-09T12:04:12.611Z,0.85
2024-05-09T12:06:40.544Z,1.05
2024-05-09T12:09:13.529Z,0.88
2024-05-09T12:11:41.060Z,0.80
2024-05-09T12:14:11.312Z,0.80
2024-05-09T12:16:38.934Z,0.80
2024-05-09T12:19:09.532Z,1.02
2024-05-09T12:21:37.259Z,1.02
2024-05-09T12:24:07.668Z,0.90
2024-05-09T12:26:38.065Z,0.90
2024-05-09T12:29:08.344Z,0.68
2024-05-09T12:31:35.888Z,0.90
2024-05-09T12:34:06.269Z,0.77
2024-05-09T12:36:33.981Z,0.75
2024-05-09T12:39:06.464Z,0.88
2024-05-09T12:41:36.692Z,1.00
2024-05-09T12:44:06.927Z,1.15
2024-05-09T12:46:34.580Z,1.10
2024-05-09T12:49:05.058Z,0.90
2024-05-09T12:51:32.818Z,0.90
2024-05-09T12:54:03.267Z,1.08
2024-05-09T12:56:31.226Z,0.90
2024-05-09T12:59:04.191Z,0.80
2024-05-09T13:01:31.873Z,1.10
2024-05-09T13:04:02.410Z,0.90
2024-05-09T13:06:30.281Z,0.80
2024-05-09T13:09:00.876Z,1.00
2024-05-09T13:11:30.120Z,1.20
2024-05-09T13:14:00.587Z,0.77
2024-05-09T13:16:33.130Z,0.70
2024-05-09T13:19:03.791Z,0.90
2024-05-09T13:21:31.433Z,0.90
2024-05-09T13:24:01.737Z,0.80
2024-05-09T13:26:29.325Z,0.85
2024-05-09T13:28:59.571Z,0.95
2024-05-09T13:31:29.930Z,1.05
2024-05-09T13:34:00.292Z,0.80
2024-05-09T13:36:27.906Z,1.13
2024-05-09T13:38:59.467Z,0.70
2024-05-09T13:41:27.105Z,1.00
2024-05-09T13:43:57.252Z,0.90
2024-05-09T13:46:25.039Z,0.82
2024-05-09T13:48:58.131Z,0.90
2024-05-09T13:51:26.012Z,0.90
2024-05-09T13:53:56.979Z,0.93
2024-05-09T13:56:24.497Z,1.10
2024-05-09T13:58:55.164Z,0.82
2024-05-09T14:01:22.734Z,1.02
2024-05-09T14:03:53.159Z,1.00
2024-05-09T14:06:23.488Z,1.10
2024-05-09T14:08:53.982Z,1.10
2024-05-09T14:11:22.145Z,0.85
2024-05-09T14:13:52.446Z,1.05
2024-05-09T14:16:20.093Z,0.80
2024-05-09T14:18:50.478Z,1.02
2024-05-09T14:21:18.022Z,1.00
2024-05-09T14:23:51.049Z,0.80
2024-05-09T14:26:18.665Z,0.85
2024-05-09T14:28:48.856Z,0.77
2024-05-09T14:31:16.484Z,0.88
2024-05-09T14:33:47.023Z,0.93
2024-05-09T14:36:14.647Z,0.95
2024-05-09T14:38:45.040Z,0.90
2024-05-09T14:41:15.335Z,0.90
2024-05-09T14:43:46.017Z,1.05
2024-05-09T14:46:13.645Z,0.82
2024-05-09T14:48:44.560Z,0.77
2024-05-09T14:51:12.199Z,0.80
2024-05-09T14:53:42.420Z,0.90
2024-05-09T14:56:10.467Z,1.08
2024-05-09T14:58:43.403Z,0.90
2024-05-09T15:01:11.005Z,0.70
2024-05-09T15:03:41.330Z,0.93
2024-05-09T15:06:10.286Z,0.70
2024-05-09T15:08:42.136Z,0.90
2024-05-09T15:11:09.713Z,0.88
2024-05-09T15:13:42.749Z,1.05
2024-05-09T15:16:10.302Z,0.90
2024-05-09T15:18:43.807Z,0.90
2024-05-09T15:21:11.687Z,1.23
2024-05-09T15:23:41.896Z,0.90
2024-05-09T15:26:09.535Z,0.98
2024-05-09T15:28:43.167Z,0.95
2024-05-09T15:31:10.829Z,1.10
2024-05-09T15:33:42.758Z,0.80
2024-05-09T15:36:10.763Z,0.95
2024-05-09T15:38:41.386Z,1.10
2024-05-09T15:41:08.942Z,0.80
2024-05-09T15:43:39.247Z,1.10
2024-05-09T15:46:09.757Z,0.90
2024-05-09T15:48:42.674Z,0.98
2024-05-09T15:51:11.992Z,0.98
2024-05-09T15:53:42.322Z,0.90
2024-05-09T15:56:11.118Z,0.90
2024-05-09T15:58:41.437Z,1.27
2024-05-09T16:01:12.864Z,0.90
2024-05-09T16:03:43.385Z,0.85
2024-05-09T16:06:11.197Z,0.90
2024-05-09T16:08:41.701Z,0.80
2024-05-09T16:11:09.324Z,1.20
2024-05-09T16:13:39.597Z,1.13
2024-05-09T16:16:07.590Z,1.10
2024-05-09T16:18:40.961Z,1.17
2024-05-09T16:21:08.668Z,1.35
2024-05-09T16:23:40.642Z,0.80
2024-05-09T16:26:08.274Z,1.20
2024-05-09T16:28:39.022Z,0.90
2024-05-09T16:31:06.733Z,1.10
2024-05-09T16:33:40.641Z,1.30
2024-05-09T16:36:08.686Z,0.80
2024-05-09T16:38:40.180Z,0.98
2024-05-09T16:41:07.719Z,1.25
2024-05-09T16:43:38.060Z,1.00
2024-05-09T16:46:05.920Z,1.10
2024-05-09T16:48:37.395Z,1.08
2024-05-09T16:51:07.667Z,1.20
2024-05-09T16:53:38.030Z,0.90
2024-05-09T16:56:07.224Z,0.80
2024-05-09T16:58:37.758Z,1.20
2024-05-09T17:01:05.774Z,1.10
2024-05-09T17:03:36.250Z,0.70
2024-05-09T17:06:06.831Z,0.95
2024-05-09T17:08:38.765Z,0.93
2024-05-09T17:11:06.474Z,1.40
2024-05-09T17:13:39.600Z,0.90
2024-05-09T17:16:09.094Z,1.02
2024-05-09T17:18:40.069Z,1.15
2024-05-09T17:21:10.643Z,0.80
2024-05-09T17:23:41.044Z,0.88
2024-05-09T17:26:08.586Z,0.68
2024-05-09T17:28:44.518Z,0.80
2024-05-09T17:31:32.051Z,0.80
2024-05-09T17:34:05.981Z,0.90
2024-05-09T17:36:37.811Z,0.70
2024-05-09T17:39:09.448Z,0.70
2024-05-09T17:41:37.606Z,0.70
2024-05-09T17:44:10.656Z,0.63
2024-05-09T17:46:38.557Z,0.60
2024-05-09T17:49:09.832Z,0.70
2024-05-09T17:51:51.607Z,0.80
2024-05-09T17:54:21.919Z,0.90
2024-05-09T17:56:51.184Z,0.68
2024-05-09T17:59:21.526Z,0.65
2024-05-09T18:01:49.463Z,0.60
2024-05-09T18:04:20.860Z,0.63
2024-05-09T18:06:51.269Z,0.60
2024-05-09T18:09:21.611Z,0.60
2024-05-09T18:11:49.420Z,0.70
2024-05-09T18:14:19.747Z,0.77
2024-05-09T18:16:47.637Z,0.70
2024-05-09T18:19:18.010Z,0.60
2024-05-09T18:21:45.595Z,0.60
2024-05-09T18:24:22.235Z,0.85
2024-05-09T18:26:50.067Z,0.93
2024-05-09T18:29:22.268Z,0.60
2024-05-09T18:31:50.116Z,0.70
2024-05-09T18:34:20.703Z,0.82
2024-05-09T18:36:48.572Z,0.60
2024-05-09T18:39:21.672Z,0.73
2024-05-09T18:41:49.316Z,0.80
2024-05-09T18:44:19.754Z,1.20
2024-05-09T18:46:47.545Z,0.50
2024-05-09T18:49:18.326Z,0.50
2024-05-09T18:51:46.382Z,0.95
2024-05-09T18:54:16.681Z,0.55
2024-05-09T18:56:47.107Z,0.60
2024-05-09T18:59:17.456Z,0.88
2024-05-09T19:01:45.079Z,0.70
2024-05-09T19:04:18.553Z,0.73
2024-05-09T19:06:46.543Z,0.60
2024-05-09T19:09:16.960Z,0.80
2024-05-09T19:11:47.188Z,1.15
2024-05-09T19:14:17.404Z,0.60
2024-05-09T19:16:45.129Z,0.93
2024-05-09T19:19:15.460Z,0.55
2024-05-09T19:21:43.233Z,0.80
2024-05-09T19:24:13.625Z,0.80
2024-05-09T19:26:41.381Z,0.80
2024-05-09T19:29:14.414Z,0.70
2024-05-09T19:31:42.000Z,0.88
2024-05-09T19:34:12.390Z,0.90
2024-05-09T19:36:40.091Z,0.65
2024-05-09T19:39:10.418Z,0.60
2024-05-09T19:41:37.990Z,0.82
2024-05-09T19:44:08.671Z,0.65
2024-05-09T19:46:39.167Z,1.05
2024-05-09T19:49:09.643Z,0.65
2024-05-09T19:51:37.355Z,0.70
2024-05-09T19:54:07.802Z,0.70
2024-05-09T19:56:35.536Z,0.80
2024-05-09T19:59:05.860Z,1.13
2024-05-09T20:01:33.497Z,0.90
2024-05-09T20:04:07.506Z,0.90
2024-05-09T20:06:37.379Z,0.88
2024-05-09T20:09:07.709Z,0.93
2024-05-09T20:11:35.247Z,0.88
2024-05-09T20:14:05.552Z,0.90
2024-05-09T20:16:33.267Z,0.88
2024-05-09T20:19:06.462Z,0.70
2024-05-09T20:21:34.200Z,0.90
2024-05-09T20:24:04.501Z,1.20
2024-05-09T20:26:32.075Z,1.10
2024-05-09T20:29:02.276Z,1.07
2024-05-09T20:31:29.852Z,1.00
2024-05-09T20:34:00.225Z,0.70
2024-05-09T20:36:30.559Z,0.85
2024-05-09T20:39:00.851Z,0.70
2024-05-09T20:41:28.400Z,1.00
2024-05-09T20:44:01.826Z,1.00
2024-05-09T20:46:29.549Z,0.80
2024-05-09T20:49:00.014Z,0.80
2024-05-09T20:51:30.954Z,1.03
2024-05-09T20:54:01.168Z,1.10
2024-05-09T20:56:29.015Z,1.03
2024-05-09T20:59:00.189Z,1.00
2024-05-09T21:01:27.863Z,1.13
2024-05-09T21:03:58.397Z,1.00
2024-05-09T21:06:26.061Z,1.00
2024-05-09T21:08:59.101Z,0.90
2024-05-09T21:11:26.706Z,1.00
2024-05-09T21:13:57.128Z,1.15
2024-05-09T21:16:24.830Z,1.73
2024-05-09T21:18:55.193Z,2.30
2024-05-09T21:21:22.767Z,1.30
2024-05-09T21:23:53.009Z,1.17
2024-05-09T21:26:24.094Z,1.30
2024-05-09T21:28:54.360Z,1.30
2024-05-09T21:31:22.041Z,1.37
2024-05-09T21:33:52.438Z,1.33
2024-05-09T21:36:20.231Z,1.27
2024-05-09T21:38:50.508Z,1.17
2024-05-09T21:41:18.176Z,1.23
2024-05-09T21:43:51.781Z,1.50
2024-05-09T21:46:19.761Z,1.87
2024-05-09T21:48:50.323Z,1.67
2024-05-09T21:51:18.083Z,1.73
2024-05-09T21:53:49.053Z,1.63
2024-05-09T21:56:16.669Z,1.87
2024-05-09T21:58:46.859Z,1.80
2024-05-09T22:01:17.329Z,1.57
2024-05-09T22:03:47.896Z,1.87
2024-05-09T22:06:15.579Z,1.40
2024-05-09T22:08:45.742Z,1.30
2024-05-09T22:11:13.412Z,1.50
2024-05-09T22:13:43.642Z,1.73
2024-05-09T22:16:11.384Z,1.80
2024-05-09T22:18:44.530Z,1.03
2024-05-09T22:21:12.099Z,1.57
2024-05-09T22:23:42.381Z,1.37
2024-05-09T22:26:09.916Z,1.50
2024-05-09T22:28:40.215Z,1.70
2024-05-09T22:31:09.427Z,1.60
2024-05-09T22:33:40.288Z,1.70
2024-05-09T22:36:11.421Z,1.87
2024-05-09T22:38:41.677Z,1.50
2024-05-09T22:41:10.332Z,1.70
2024-05-09T22:43:40.583Z,1.87
2024-05-09T22:46:08.236Z,1.40
2024-05-09T22:48:38.810Z,1.37
2024-05-09T22:51:06.623Z,1.50
2024-05-09T22:53:39.489Z,1.37
2024-05-09T22:56:07.812Z,1.50
2024-05-09T22:58:38.285Z,1.60
2024-05-09T23:01:06.410Z,1.80
2024-05-09T23:03:36.807Z,1.57
2024-05-09T23:06:06.901Z,2.20
2024-05-09T23:08:39.893Z,1.80
2024-05-09T23:11:07.713Z,1.40
2024-05-09T23:13:38.214Z,1.53
2024-05-09T23:16:06.642Z,1.50
2024-05-09T23:18:36.972Z,1.90
2024-05-09T23:21:05.041Z,1.70
2024-05-09T23:23:35.242Z,1.53
2024-05-09T23:26:05.881Z,1.93
2024-05-09T23:28:36.341Z,1.80
2024-05-09T23:31:05.281Z,2.00
2024-05-09T23:33:35.781Z,1.87
2024-05-09T23:36:03.412Z,1.70
2024-05-09T23:38:33.547Z,1.53
2024-05-09T23:41:01.168Z,1.90
2024-05-09T23:43:36.400Z,1.70
2024-05-09T23:46:03.997Z,1.87
2024-05-09T23:48:34.373Z,1.63
2024-05-09T23:51:01.934Z,1.80
2024-05-09T23:53:32.202Z,1.73
2024-05-09T23:55:59.742Z,1.83
2024-05-09T23:58:30.201Z,1.93
